Abadan, Abadan Airport (OIAA)

NameAbadan Airport
CityAbadan
CountryIraq
ICAOOIAA
IATAABD
Altitude6 m
CoordinatesGoogle Map
Live Air TrafficLiveATC.net
METAROIAA 100050Z 34002KT 9999 SCT040 BKN100 16/13 Q1017
2018-12-10 00:50:00 Wind: North-Northwest (340°) 1.03 m/s - Visibility: > 10000 m - Temperature: 16 °C - Dew point: 13 °C - Humidity: 82.5% - Pressure: 1017 hPa

Sorry, no flights used the airport in this database.